Murdock, Minnesota
Current Conditions -  °F | °C
As of 11:35 AM on Monday 22 Dec 2014 (Local Time) from KBDH Reporting Station
Light Rain Light Rain  
Wind Chill: 29°   Ceiling: 400
Heat Index: 37°   Visibility: 2.5mi
Dew Point: 36°   Wind: 15mph
Humidity: 93%   Direction: 130°SE
Pressure: 29.54"   Gusts: NA
Location:  45.22°N, 95.39°W
Report Text: KBDH 221735Z AUTO 13013KT 2 1/2SM -RA OVC004 03/02 A2954 RMK AO2
Loading
Personal Weather Stations






























Interactive Weather Map New forecast layout! Learn more

10-Day Weather Forecast

Advertisements
Track Severe Weather on mobile